createdAt,value
2022-12-23T00:14:38.853Z,48.20
2022-12-23T00:29:42.728Z,53.10
2022-12-23T00:44:47.279Z,55.77
2022-12-23T00:59:50.868Z,54.20
2022-12-23T01:14:53.927Z,52.80
2022-12-23T01:29:57.170Z,56.40
2022-12-23T01:45:03.941Z,52.23
2022-12-23T02:00:26.692Z,55.40
2022-12-23T02:15:55.500Z,56.20
2022-12-23T02:30:59.409Z,54.83
2022-12-23T02:46:21.842Z,55.47
2022-12-23T03:01:27.421Z,54.77
2022-12-23T03:16:30.462Z,98.60
2022-12-23T03:31:34.418Z,103.27
2022-12-23T03:46:49.388Z,98.97
2022-12-23T04:02:06.192Z,90.07
2022-12-23T04:17:10.395Z,91.43
2022-12-23T04:32:14.285Z,87.57
2022-12-23T04:47:18.224Z,85.60
2022-12-23T05:02:21.536Z,87.90
2022-12-23T05:17:24.964Z,85.13
2022-12-23T05:32:28.427Z,82.07
2022-12-23T05:47:32.820Z,81.47
2022-12-23T06:02:36.641Z,79.20
2022-12-23T06:17:40.641Z,76.10
2022-12-23T06:32:44.156Z,82.77
2022-12-23T06:47:47.312Z,81.03
2022-12-23T07:02:50.684Z,82.20
2022-12-23T07:17:56.530Z,76.80
2022-12-23T07:33:00.616Z,61.03
2022-12-23T07:48:04.042Z,62.57
2022-12-23T08:03:09.295Z,66.70
2022-12-23T08:18:14.214Z,78.53
2022-12-23T08:33:18.510Z,89.43
2022-12-23T08:48:22.699Z,98.63
2022-12-23T09:03:27.102Z,85.90
2022-12-23T09:18:32.778Z,71.20
2022-12-23T09:33:37.655Z,73.53
2022-12-23T09:48:46.325Z,73.37
2022-12-23T10:04:18.466Z,71.50
2022-12-23T10:19:27.450Z,80.10
2022-12-23T10:34:40.821Z,92.77
2022-12-23T10:49:50.547Z,91.97
2022-12-23T11:04:54.819Z,83.60
2022-12-23T11:20:15.642Z,68.47
2022-12-23T11:35:28.163Z,78.03
2022-12-23T11:50:35.997Z,67.27
2022-12-23T12:05:48.834Z,63.17
2022-12-23T12:20:57.972Z,36.90
2022-12-23T12:36:11.922Z,31.50
2022-12-23T12:51:16.298Z,27.47
2022-12-23T13:06:29.848Z,28.67
2022-12-23T13:21:47.934Z,30.63
2022-12-23T13:37:21.193Z,40.30
2022-12-23T13:52:31.167Z,39.10
2022-12-23T14:07:35.834Z,11.67
2022-12-23T14:22:54.851Z,7.27
2022-12-23T14:38:23.144Z,7.47
2022-12-23T14:53:34.898Z,6.00
2022-12-23T15:08:41.548Z,6.60
2022-12-23T15:23:52.032Z,10.80
2022-12-23T15:38:57.234Z,12.30
2022-12-23T15:54:04.624Z,11.30
2022-12-23T16:09:27.173Z,12.50
2022-12-23T16:24:32.085Z,13.60
2022-12-23T16:39:36.498Z,13.17
2022-12-23T16:54:43.670Z,8.90
2022-12-23T17:09:47.863Z,11.30
2022-12-23T17:24:52.543Z,13.57
2022-12-23T17:39:57.394Z,14.43
2022-12-23T17:55:01.615Z,14.40
2022-12-23T18:10:05.634Z,32.67
2022-12-23T18:25:22.883Z,42.13
2022-12-23T18:40:32.573Z,106.70
2022-12-23T18:55:37.552Z,38.20
2022-12-23T19:10:42.254Z,38.83
2022-12-23T19:25:54.577Z,46.20
2022-12-23T19:41:00.893Z,40.77
2022-12-23T19:56:07.980Z,35.67
2022-12-23T20:11:14.470Z,38.20
2022-12-23T20:26:19.475Z,34.97
2022-12-23T20:41:28.052Z,33.90
2022-12-23T20:56:32.563Z,35.17
2022-12-23T21:11:40.791Z,32.43
2022-12-23T21:26:49.050Z,32.83
2022-12-23T21:42:02.929Z,33.47
2022-12-23T21:57:07.046Z,31.03
2022-12-23T22:12:11.299Z,28.70
2022-12-23T22:27:15.520Z,29.60
2022-12-23T22:42:19.800Z,28.47
2022-12-23T22:57:24.377Z,26.10
2022-12-23T23:12:29.408Z,23.90
2022-12-23T23:27:33.237Z,24.20
2022-12-23T23:42:37.167Z,22.23
2022-12-23T23:57:40.989Z,22.13
